createdAt,value
2023-05-10T00:01:16.112Z,81.72
2023-05-10T00:03:42.937Z,82.94
2023-05-10T00:06:09.656Z,84.17
2023-05-10T00:08:36.368Z,83.34
2023-05-10T00:11:02.984Z,87.99
2023-05-10T00:13:29.615Z,85.69
2023-05-10T00:15:56.518Z,85.47
2023-05-10T00:18:23.373Z,88.93
2023-05-10T00:20:50.210Z,85.98
2023-05-10T00:23:16.812Z,82.25
2023-05-10T00:25:43.597Z,80.17
2023-05-10T00:28:10.164Z,83.17
2023-05-10T00:30:36.810Z,80.89
2023-05-10T00:33:03.981Z,84.41
2023-05-10T00:35:30.709Z,80.78
2023-05-10T00:37:57.270Z,80.35
2023-05-10T00:40:24.049Z,83.32
2023-05-10T00:42:51.839Z,82.13
2023-05-10T00:45:18.666Z,81.67
2023-05-10T00:47:45.346Z,82.64
2023-05-10T00:50:12.149Z,80.31
2023-05-10T00:52:38.932Z,79.61
2023-05-10T00:55:07.062Z,80.37
2023-05-10T00:57:33.918Z,78.24
2023-05-10T01:00:00.669Z,79.25
2023-05-10T01:02:27.335Z,79.15
2023-05-10T01:04:54.078Z,79.01
2023-05-10T01:07:20.836Z,79.57
2023-05-10T01:09:48.169Z,86.59
2023-05-10T01:12:16.271Z,82.36
2023-05-10T01:14:43.497Z,79.51
2023-05-10T01:17:12.074Z,79.84
2023-05-10T01:19:39.297Z,78.37
2023-05-10T01:22:17.760Z,79.46
2023-05-10T01:25:06.131Z,78.64
2023-05-10T01:27:56.048Z,80.83
2023-05-10T01:30:34.553Z,84.38
2023-05-10T01:33:24.300Z,82.80
2023-05-10T01:36:10.114Z,83.47
2023-05-10T01:38:44.146Z,78.90
2023-05-10T01:41:33.432Z,77.25
2023-05-10T01:44:14.473Z,76.55
2023-05-10T01:46:41.937Z,77.22
2023-05-10T01:49:26.593Z,77.57
2023-05-10T01:51:57.952Z,76.90
2023-05-10T01:54:25.726Z,75.14
2023-05-10T01:57:06.552Z,78.22
2023-05-10T01:59:38.054Z,79.07
2023-05-10T02:02:06.979Z,77.85
2023-05-10T02:04:36.385Z,76.46
2023-05-10T02:07:03.427Z,75.83
2023-05-10T02:09:33.094Z,74.75
2023-05-10T02:12:03.595Z,79.40
2023-05-10T02:14:33.365Z,79.92
2023-05-10T02:17:01.009Z,79.02
2023-05-10T02:19:30.048Z,74.77
2023-05-10T02:21:58.336Z,74.04
2023-05-10T02:24:26.233Z,77.14
2023-05-10T02:26:56.744Z,77.01
2023-05-10T02:29:26.230Z,75.33
2023-05-10T02:31:54.319Z,77.73
2023-05-10T02:34:24.340Z,75.82
2023-05-10T02:36:52.121Z,73.86
2023-05-10T02:39:20.728Z,76.43
2023-05-10T02:41:49.858Z,77.21
2023-05-10T02:44:19.599Z,75.12
2023-05-10T02:46:46.812Z,73.23
2023-05-10T02:49:13.922Z,76.10
2023-05-10T02:51:46.149Z,74.07
2023-05-10T02:54:19.613Z,74.68
2023-05-10T02:56:54.808Z,73.20
2023-05-10T02:59:21.482Z,74.11
2023-05-10T03:01:48.344Z,73.83
2023-05-10T03:04:15.113Z,71.77
2023-05-10T03:06:42.413Z,72.80
2023-05-10T03:09:10.527Z,72.86
2023-05-10T03:11:55.671Z,73.46
2023-05-10T03:14:50.453Z,72.60
2023-05-10T03:17:48.180Z,72.04
2023-05-10T03:20:26.959Z,71.76
2023-05-10T03:23:03.900Z,74.92
2023-05-10T03:25:32.161Z,76.06
2023-05-10T03:28:00.872Z,75.30
2023-05-10T03:30:27.968Z,74.24
2023-05-10T03:32:55.291Z,75.15
2023-05-10T03:35:22.029Z,75.58
2023-05-10T03:37:48.621Z,74.41
2023-05-10T03:40:15.633Z,75.29
2023-05-10T03:42:42.536Z,75.21
2023-05-10T03:45:09.958Z,75.32
2023-05-10T03:47:36.593Z,74.97
2023-05-10T03:50:03.540Z,74.57
2023-05-10T03:52:30.167Z,73.63
2023-05-10T03:54:56.797Z,72.73
2023-05-10T03:57:23.453Z,72.52
2023-05-10T03:59:50.099Z,72.25
2023-05-10T04:02:16.737Z,74.22
2023-05-10T04:04:43.334Z,74.89
2023-05-10T04:07:11.415Z,74.00
2023-05-10T04:09:38.025Z,73.31
2023-05-10T04:12:04.861Z,72.79
2023-05-10T04:14:31.476Z,71.92
2023-05-10T04:16:58.152Z,71.82
2023-05-10T04:19:24.871Z,72.79
2023-05-10T04:21:51.482Z,72.83
2023-05-10T04:24:18.155Z,73.36
2023-05-10T04:26:44.864Z,73.19
2023-05-10T04:29:11.455Z,74.27
2023-05-10T04:31:38.240Z,71.98
2023-05-10T04:34:04.961Z,74.97
2023-05-10T04:36:33.448Z,73.34
2023-05-10T04:39:00.169Z,72.53
2023-05-10T04:41:26.980Z,74.17
2023-05-10T04:43:53.677Z,75.29
2023-05-10T04:46:20.389Z,71.70
2023-05-10T04:48:47.095Z,74.23
2023-05-10T04:51:13.758Z,72.11
2023-05-10T04:53:41.789Z,72.43
2023-05-10T04:56:08.609Z,70.64
2023-05-10T04:58:35.302Z,70.38
2023-05-10T05:01:11.755Z,69.36
2023-05-10T05:03:38.498Z,68.64
2023-05-10T05:06:05.492Z,71.48
2023-05-10T05:08:32.253Z,71.36
2023-05-10T05:10:58.905Z,71.85
2023-05-10T05:13:25.553Z,72.52
2023-05-10T05:15:52.367Z,70.09
2023-05-10T05:18:18.994Z,71.15
2023-05-10T05:20:45.617Z,71.49
2023-05-10T05:23:12.250Z,71.34
2023-05-10T05:25:39.052Z,70.06
2023-05-10T05:28:05.659Z,72.75
2023-05-10T05:30:32.622Z,71.83
2023-05-10T05:32:59.284Z,72.39
2023-05-10T05:35:25.989Z,72.20
2023-05-10T05:37:52.555Z,75.32
2023-05-10T05:40:19.209Z,71.58
2023-05-10T05:42:45.879Z,71.66
2023-05-10T05:45:14.323Z,70.07
2023-05-10T05:47:41.302Z,72.42
2023-05-10T05:50:08.272Z,71.16
2023-05-10T05:52:35.027Z,70.42
2023-05-10T05:55:02.518Z,73.71
2023-05-10T05:57:29.167Z,71.24
2023-05-10T05:59:55.795Z,72.20
2023-05-10T06:02:22.539Z,71.48
2023-05-10T06:04:49.234Z,72.66
2023-05-10T06:07:15.843Z,71.68
2023-05-10T06:09:42.494Z,73.63
2023-05-10T06:12:09.081Z,69.21
2023-05-10T06:14:35.644Z,71.42
2023-05-10T06:17:05.071Z,72.32
2023-05-10T06:19:31.983Z,73.84
2023-05-10T06:21:58.576Z,74.56
2023-05-10T06:24:25.192Z,74.74
2023-05-10T06:26:52.017Z,76.67
2023-05-10T06:29:18.678Z,73.98
2023-05-10T06:31:45.398Z,72.38
2023-05-10T06:34:12.757Z,73.94
2023-05-10T06:36:39.404Z,70.74
2023-05-10T06:39:06.725Z,69.87
2023-05-10T06:41:33.284Z,71.96
2023-05-10T06:43:59.854Z,68.48
2023-05-10T06:46:26.923Z,70.58
2023-05-10T06:48:53.721Z,68.57
2023-05-10T06:51:22.143Z,67.74
2023-05-10T06:53:48.768Z,70.88
2023-05-10T06:56:15.429Z,68.32
2023-05-10T06:58:42.053Z,72.51
2023-05-10T07:01:09.341Z,74.98
2023-05-10T07:03:36.348Z,73.57
2023-05-10T07:06:13.322Z,72.01
2023-05-10T07:08:45.240Z,73.41
2023-05-10T07:11:11.905Z,70.81
2023-05-10T07:13:40.205Z,72.46
2023-05-10T07:16:07.499Z,68.63
2023-05-10T07:18:34.690Z,68.52
2023-05-10T07:21:01.350Z,66.00
2023-05-10T07:23:28.146Z,65.58
2023-05-10T07:25:55.070Z,64.34
2023-05-10T07:28:21.751Z,64.92
2023-05-10T07:30:48.398Z,63.39
2023-05-10T07:33:15.634Z,62.87
2023-05-10T07:35:42.820Z,65.65
2023-05-10T07:38:09.571Z,71.01
2023-05-10T07:40:36.292Z,69.85
2023-05-10T07:43:03.408Z,66.32
2023-05-10T07:45:30.206Z,67.73
2023-05-10T07:47:57.016Z,67.93
2023-05-10T07:50:23.903Z,66.77
2023-05-10T07:52:50.527Z,64.49
2023-05-10T07:55:19.219Z,65.02
2023-05-10T07:57:45.887Z,65.56
2023-05-10T08:00:14.572Z,64.13
2023-05-10T08:02:41.956Z,66.25
2023-05-10T08:05:08.947Z,65.86
2023-05-10T08:07:35.555Z,64.50
2023-05-10T08:10:03.427Z,66.82
2023-05-10T08:12:30.141Z,66.17
2023-05-10T08:14:56.765Z,65.36
2023-05-10T08:17:24.701Z,67.89
2023-05-10T08:19:51.508Z,67.93
2023-05-10T08:22:18.103Z,68.17
2023-05-10T08:24:44.734Z,66.75
2023-05-10T08:27:11.337Z,70.55
2023-05-10T08:29:48.864Z,71.36
2023-05-10T08:32:15.980Z,71.71
2023-05-10T08:34:42.593Z,68.37
2023-05-10T08:37:09.362Z,68.81
2023-05-10T08:39:36.680Z,67.28
2023-05-10T08:42:05.979Z,69.91
2023-05-10T08:44:37.661Z,70.54
2023-05-10T08:47:07.668Z,69.29
2023-05-10T08:49:35.075Z,69.45
2023-05-10T08:52:06.626Z,70.99
2023-05-10T08:54:34.429Z,70.11
2023-05-10T08:57:02.013Z,71.52
2023-05-10T08:59:29.504Z,72.50
2023-05-10T09:01:58.802Z,73.05
2023-05-10T09:04:25.943Z,72.50
2023-05-10T09:06:52.936Z,72.06
2023-05-10T09:09:21.438Z,69.88
2023-05-10T09:11:48.569Z,68.07
2023-05-10T09:14:16.305Z,71.86
2023-05-10T09:16:43.669Z,72.93
2023-05-10T09:19:10.635Z,69.84
2023-05-10T09:21:39.314Z,68.97
2023-05-10T09:24:09.501Z,69.40
2023-05-10T09:26:37.474Z,69.10
2023-05-10T09:29:04.420Z,67.84
2023-05-10T09:31:57.431Z,69.91
2023-05-10T09:34:35.742Z,71.74
2023-05-10T09:37:05.618Z,69.49
2023-05-10T09:39:37.225Z,66.23
2023-05-10T09:42:09.044Z,67.71
2023-05-10T09:44:36.650Z,67.39
2023-05-10T09:47:03.979Z,66.97
2023-05-10T09:49:31.145Z,70.14
2023-05-10T09:52:08.083Z,67.04
2023-05-10T09:54:35.458Z,68.07
2023-05-10T09:57:02.290Z,70.82
2023-05-10T09:59:30.233Z,67.71
2023-05-10T10:01:59.163Z,68.04
2023-05-10T10:04:26.557Z,67.14
2023-05-10T10:07:05.982Z,69.36
2023-05-10T10:09:33.840Z,64.31
2023-05-10T10:12:04.864Z,65.55
2023-05-10T10:14:31.688Z,62.55
2023-05-10T10:19:33.911Z,66.59
2023-05-10T10:22:01.518Z,68.02
2023-05-10T10:24:28.149Z,67.46
2023-05-10T10:27:03.278Z,65.28
2023-05-10T10:29:32.739Z,67.89
2023-05-10T10:32:45.906Z,64.56
2023-05-10T10:35:12.629Z,63.44
2023-05-10T10:37:46.941Z,65.03
2023-05-10T10:40:34.897Z,64.38
2023-05-10T10:43:25.366Z,62.51
2023-05-10T10:46:12.646Z,63.77
2023-05-10T10:48:39.346Z,63.10
2023-05-10T10:51:06.181Z,64.85
2023-05-10T10:53:33.521Z,63.74
2023-05-10T10:56:11.196Z,65.74
2023-05-10T10:58:39.455Z,65.18
2023-05-10T11:01:13.298Z,63.59
2023-05-10T11:03:40.028Z,62.20
2023-05-10T11:06:07.155Z,63.52
2023-05-10T11:08:36.960Z,63.74
2023-05-10T11:11:10.516Z,62.24
2023-05-10T11:13:50.967Z,61.43
2023-05-10T11:16:25.935Z,60.94
2023-05-10T11:19:00.024Z,59.48
2023-05-10T11:21:27.206Z,61.13
2023-05-10T11:23:57.595Z,63.01
2023-05-10T11:26:27.116Z,64.42
2023-05-10T11:28:56.457Z,63.75
2023-05-10T11:31:24.036Z,62.62
2023-05-10T11:33:53.158Z,61.43
2023-05-10T11:36:26.930Z,61.61
2023-05-10T11:38:54.487Z,61.05
2023-05-10T11:41:24.452Z,61.47
2023-05-10T11:43:53.094Z,62.01
2023-05-10T11:46:22.830Z,67.56
2023-05-10T11:48:55.658Z,63.35
2023-05-10T11:51:24.134Z,62.71
2023-05-10T11:53:55.969Z,62.79
2023-05-10T11:56:24.494Z,65.43
2023-05-10T11:58:56.798Z,63.85
2023-05-10T12:01:24.850Z,64.99
2023-05-10T12:03:52.602Z,65.84
2023-05-10T12:06:23.107Z,64.29
2023-05-10T12:08:53.659Z,65.95
2023-05-10T12:11:21.945Z,64.61
2023-05-10T12:13:48.889Z,66.16
2023-05-10T12:16:23.572Z,66.01
2023-05-10T12:18:54.648Z,67.00
2023-05-10T12:21:22.213Z,67.30
2023-05-10T12:23:53.834Z,65.97
2023-05-10T12:26:24.320Z,64.39
2023-05-10T12:28:51.117Z,67.16
2023-05-10T12:31:17.837Z,67.82
2023-05-10T12:33:45.712Z,63.12
2023-05-10T12:36:14.058Z,68.76
2023-05-10T12:38:48.618Z,64.47
2023-05-10T12:41:17.775Z,65.48
2023-05-10T12:43:46.438Z,64.64
2023-05-10T12:46:18.084Z,64.95
2023-05-10T12:48:47.297Z,63.34
2023-05-10T12:51:16.706Z,62.19
2023-05-10T12:53:46.163Z,67.27
2023-05-10T12:56:13.984Z,67.19
2023-05-10T12:58:40.743Z,66.44
2023-05-10T13:01:07.544Z,67.66
2023-05-10T13:03:34.290Z,65.98
2023-05-10T13:06:01.025Z,65.01
2023-05-10T13:08:27.808Z,67.09
2023-05-10T13:10:54.468Z,66.53
2023-05-10T13:13:21.179Z,64.61
2023-05-10T13:15:47.767Z,66.79
2023-05-10T13:18:14.561Z,67.06
2023-05-10T13:20:41.320Z,65.15
2023-05-10T13:23:07.895Z,62.63
2023-05-10T13:25:35.419Z,62.37
2023-05-10T13:28:02.486Z,64.47
2023-05-10T13:30:30.217Z,62.45
2023-05-10T13:32:57.028Z,62.13
2023-05-10T13:35:23.824Z,62.23
2023-05-10T13:37:50.589Z,64.79
2023-05-10T13:40:18.263Z,61.72
2023-05-10T13:42:44.985Z,66.08
2023-05-10T13:45:13.393Z,65.81
2023-05-10T13:47:40.172Z,66.68
2023-05-10T13:50:07.864Z,65.47
2023-05-10T13:52:34.579Z,66.30
2023-05-10T13:55:03.530Z,65.04
2023-05-10T13:57:31.304Z,64.95
2023-05-10T13:59:58.364Z,64.82
2023-05-10T14:02:25.690Z,64.53
2023-05-10T14:04:52.567Z,64.67
2023-05-10T14:07:19.505Z,64.67
2023-05-10T14:09:46.180Z,63.87
2023-05-10T14:12:12.871Z,65.20
2023-05-10T14:14:40.078Z,66.20
2023-05-10T14:17:06.827Z,66.21
2023-05-10T14:19:34.949Z,63.11
2023-05-10T14:22:02.406Z,63.77
2023-05-10T14:24:29.079Z,63.76
2023-05-10T14:26:55.707Z,66.05
2023-05-10T14:29:23.122Z,65.29
2023-05-10T14:31:49.794Z,65.20
2023-05-10T14:34:16.642Z,65.44
2023-05-10T14:36:43.248Z,65.41
2023-05-10T14:39:11.182Z,65.58
2023-05-10T14:41:38.187Z,65.56
2023-05-10T14:44:04.816Z,63.67
2023-05-10T14:46:31.473Z,62.56
2023-05-10T14:48:58.141Z,67.27
2023-05-10T14:51:24.707Z,68.57
2023-05-10T14:53:51.317Z,67.08
2023-05-10T14:56:18.161Z,64.75
2023-05-10T14:58:44.824Z,63.90
2023-05-10T15:01:12.120Z,63.29
2023-05-10T15:03:39.246Z,64.37
2023-05-10T15:06:06.746Z,63.44
2023-05-10T15:08:33.371Z,62.89
2023-05-10T15:10:59.995Z,63.39
2023-05-10T15:13:26.617Z,62.58
2023-05-10T15:15:53.299Z,62.23
2023-05-10T15:18:19.954Z,62.03
2023-05-10T15:20:46.597Z,62.99
2023-05-10T15:23:13.542Z,66.96
2023-05-10T15:25:40.524Z,65.31
2023-05-10T15:28:07.164Z,63.50
2023-05-10T15:30:33.761Z,64.23
2023-05-10T15:33:00.479Z,63.87
2023-05-10T15:35:28.089Z,65.22
2023-05-10T15:37:54.707Z,63.32
2023-05-10T15:40:21.320Z,63.91
2023-05-10T15:42:47.908Z,64.19
2023-05-10T15:45:15.246Z,64.65
2023-05-10T15:47:41.945Z,63.45
2023-05-10T15:50:09.705Z,62.15
2023-05-10T15:52:37.168Z,60.65
2023-05-10T15:55:04.260Z,61.25
2023-05-10T15:57:30.966Z,61.65
2023-05-10T15:59:57.957Z,62.98
2023-05-10T16:02:24.738Z,65.80
2023-05-10T16:04:51.808Z,65.06
2023-05-10T16:07:18.503Z,63.14
2023-05-10T16:09:45.178Z,61.17
2023-05-10T16:12:11.908Z,62.38
2023-05-10T16:14:38.486Z,61.28
2023-05-10T16:17:05.285Z,61.31
2023-05-10T16:19:32.210Z,63.18
2023-05-10T16:21:59.043Z,62.12
2023-05-10T16:24:26.369Z,61.38
2023-05-10T16:26:53.130Z,61.18
2023-05-10T16:29:19.786Z,60.99
2023-05-10T16:31:46.462Z,60.68
2023-05-10T16:34:13.081Z,62.04
2023-05-10T16:36:39.740Z,61.92
2023-05-10T16:39:06.383Z,62.12
2023-05-10T16:41:34.508Z,62.41
2023-05-10T16:44:01.834Z,61.66
2023-05-10T16:46:28.545Z,60.51
2023-05-10T16:48:55.234Z,60.45
2023-05-10T16:51:21.877Z,59.99
2023-05-10T16:53:48.529Z,59.47
2023-05-10T16:56:17.718Z,61.22
2023-05-10T16:58:44.513Z,57.98
2023-05-10T17:01:11.192Z,58.66
2023-05-10T17:03:37.993Z,59.33
2023-05-10T17:06:07.180Z,58.68
2023-05-10T17:08:33.937Z,58.04
2023-05-10T17:11:04.707Z,59.09
2023-05-10T17:13:31.950Z,58.25
2023-05-10T17:15:58.687Z,57.66
2023-05-10T17:18:26.844Z,59.23
2023-05-10T17:20:53.553Z,59.92
2023-05-10T17:23:20.340Z,58.67
2023-05-10T17:25:47.070Z,58.37
2023-05-10T17:28:13.702Z,58.97
2023-05-10T17:30:40.343Z,57.57
2023-05-10T17:33:07.082Z,58.68
2023-05-10T17:35:34.195Z,59.37
2023-05-10T17:38:01.028Z,60.28
2023-05-10T17:40:27.746Z,60.24
2023-05-10T17:42:54.392Z,60.40
2023-05-10T17:45:21.133Z,61.08
2023-05-10T17:47:47.810Z,63.48
2023-05-10T17:50:14.411Z,63.51
2023-05-10T17:52:41.318Z,63.60
2023-05-10T17:55:08.717Z,64.02
2023-05-10T17:57:38.094Z,63.00
2023-05-10T18:00:06.581Z,60.79
2023-05-10T18:02:33.305Z,60.77
2023-05-10T18:05:01.423Z,61.11
2023-05-10T18:07:30.109Z,61.23
2023-05-10T18:09:57.838Z,60.56
2023-05-10T18:12:24.497Z,60.45
2023-05-10T18:14:51.787Z,60.81
2023-05-10T18:17:18.424Z,62.66
2023-05-10T18:19:44.984Z,61.72
2023-05-10T18:22:11.710Z,58.85
2023-05-10T18:24:39.882Z,59.97
2023-05-10T18:27:08.723Z,59.47
2023-05-10T18:29:36.278Z,58.70
2023-05-10T18:32:03.013Z,57.71
2023-05-10T18:34:29.683Z,56.47
2023-05-10T18:36:56.517Z,58.19
2023-05-10T18:39:23.617Z,57.59
2023-05-10T18:41:50.312Z,61.13
2023-05-10T18:44:17.015Z,61.76
2023-05-10T18:46:43.729Z,63.75
2023-05-10T18:49:10.456Z,64.68
2023-05-10T18:51:37.064Z,66.64
2023-05-10T18:54:04.265Z,64.89
2023-05-10T18:56:31.003Z,65.19
2023-05-10T18:58:57.731Z,63.93
2023-05-10T19:01:24.415Z,62.89
2023-05-10T19:03:51.091Z,64.78
2023-05-10T19:06:17.774Z,63.39
2023-05-10T19:08:44.439Z,62.85
2023-05-10T19:11:11.098Z,61.02
2023-05-10T19:13:37.676Z,63.22
2023-05-10T19:16:14.322Z,60.88
2023-05-10T19:18:41.238Z,58.36
2023-05-10T19:21:10.448Z,55.88
2023-05-10T19:23:42.014Z,56.45
2023-05-10T19:26:10.711Z,57.19
2023-05-10T19:28:37.563Z,57.86
2023-05-10T19:31:04.476Z,57.54
2023-05-10T19:33:31.680Z,57.56
2023-05-10T19:35:58.335Z,57.74
2023-05-10T19:38:25.528Z,55.55
2023-05-10T19:40:58.050Z,57.73
2023-05-10T19:43:35.275Z,58.69
2023-05-10T19:46:02.877Z,58.32
2023-05-10T19:48:29.860Z,56.28
2023-05-10T19:51:01.046Z,56.85
2023-05-10T19:53:28.287Z,56.87
2023-05-10T19:55:55.579Z,57.44
2023-05-10T19:58:23.462Z,56.52
2023-05-10T20:00:50.575Z,57.02
2023-05-10T20:03:17.337Z,57.17
2023-05-10T20:05:43.947Z,56.48
2023-05-10T20:08:10.717Z,56.77
2023-05-10T20:10:37.437Z,57.95
2023-05-10T20:13:04.164Z,58.69
2023-05-10T20:15:30.996Z,56.91
2023-05-10T20:17:57.714Z,56.86
2023-05-10T20:20:24.515Z,56.37
2023-05-10T20:22:51.257Z,55.94
2023-05-10T20:25:18.745Z,58.07
2023-05-10T20:27:45.583Z,58.62
2023-05-10T20:30:13.006Z,57.69
2023-05-10T20:32:39.774Z,58.88
2023-05-10T20:35:07.242Z,59.15
2023-05-10T20:37:33.911Z,58.99
2023-05-10T20:40:00.709Z,57.49
2023-05-10T20:42:27.399Z,58.06
2023-05-10T20:44:54.045Z,59.27
2023-05-10T20:47:20.904Z,59.42
2023-05-10T20:49:47.571Z,58.79
2023-05-10T20:52:14.340Z,57.94
2023-05-10T20:54:41.063Z,57.99
2023-05-10T20:57:07.895Z,58.58
2023-05-10T20:59:34.577Z,60.20
2023-05-10T21:02:01.334Z,59.49
2023-05-10T21:04:28.216Z,57.77
2023-05-10T21:06:57.003Z,57.16
2023-05-10T21:09:23.654Z,56.63
2023-05-10T21:11:50.855Z,56.77
2023-05-10T21:14:17.548Z,56.84
2023-05-10T21:16:44.279Z,58.17
2023-05-10T21:19:11.634Z,59.21
2023-05-10T21:21:38.383Z,58.27
2023-05-10T21:24:05.350Z,56.86
2023-05-10T21:26:32.009Z,58.70
2023-05-10T21:28:59.352Z,57.83
2023-05-10T21:31:26.159Z,56.80
2023-05-10T21:33:52.867Z,56.88
2023-05-10T21:36:19.593Z,57.81
2023-05-10T21:38:46.789Z,57.64
2023-05-10T21:41:13.430Z,58.33
2023-05-10T21:43:40.162Z,59.72
2023-05-10T21:46:07.407Z,58.12
2023-05-10T21:48:34.074Z,59.39
2023-05-10T21:51:02.159Z,58.10
2023-05-10T21:53:29.036Z,58.24
2023-05-10T21:55:56.371Z,58.79
2023-05-10T21:58:23.430Z,57.66
2023-05-10T22:00:50.109Z,59.41
2023-05-10T22:03:16.949Z,57.43
2023-05-10T22:05:43.664Z,57.63
2023-05-10T22:08:10.314Z,56.95
2023-05-10T22:10:36.969Z,59.08
2023-05-10T22:13:03.677Z,59.44
2023-05-10T22:15:34.153Z,59.47
2023-05-10T22:18:03.217Z,58.22
2023-05-10T22:20:29.946Z,59.30
2023-05-10T22:22:56.574Z,58.63
2023-05-10T22:25:23.276Z,58.05
2023-05-10T22:27:49.928Z,58.29
2023-05-10T22:30:17.194Z,57.54
2023-05-10T22:32:44.237Z,57.70
2023-05-10T22:35:10.880Z,57.05
2023-05-10T22:37:37.666Z,56.68
2023-05-10T22:40:04.745Z,58.77
2023-05-10T22:42:31.377Z,57.87
2023-05-10T22:44:58.839Z,62.19
2023-05-10T22:47:25.710Z,60.78
2023-05-10T22:49:52.431Z,60.27
2023-05-10T22:52:19.185Z,60.31
2023-05-10T22:54:45.978Z,59.64
2023-05-10T22:57:12.815Z,60.34
2023-05-10T22:59:39.468Z,59.91
2023-05-10T23:02:06.816Z,60.44
2023-05-10T23:04:33.726Z,59.66
2023-05-10T23:07:00.420Z,60.61
2023-05-10T23:09:27.088Z,61.47
2023-05-10T23:11:53.785Z,64.24
2023-05-10T23:14:20.537Z,63.14
2023-05-10T23:16:47.221Z,62.72
2023-05-10T23:19:13.839Z,61.27
2023-05-10T23:21:40.922Z,65.12
2023-05-10T23:24:08.715Z,62.82
2023-05-10T23:26:35.409Z,63.31
2023-05-10T23:29:02.455Z,61.68
2023-05-10T23:31:29.212Z,61.37
2023-05-10T23:33:55.958Z,60.69
2023-05-10T23:36:22.636Z,60.48
2023-05-10T23:38:49.304Z,61.12
2023-05-10T23:41:15.914Z,60.12
2023-05-10T23:43:42.639Z,60.76
2023-05-10T23:46:09.286Z,59.88
2023-05-10T23:48:35.943Z,58.93
2023-05-10T23:51:02.657Z,61.65
2023-05-10T23:53:29.410Z,63.80
2023-05-10T23:55:56.280Z,64.21
2023-05-10T23:58:23.011Z,65.09
